createdAt,value
2022-09-15T00:01:12.135Z,98259.88
2022-09-15T00:03:39.956Z,98280.88
2022-09-15T00:06:08.625Z,98182.66
2022-09-15T00:08:35.964Z,98237.97
2022-09-15T00:11:28.733Z,98161.44
2022-09-15T00:13:58.588Z,98201.13
2022-09-15T00:16:29.217Z,98290.91
2022-09-15T00:18:56.678Z,98302.31
2022-09-15T00:21:31.970Z,98255.78
2022-09-15T00:24:00.803Z,98225.34
2022-09-15T00:26:29.893Z,98166.91
2022-09-15T00:28:58.800Z,98232.44
2022-09-15T00:31:28.231Z,98216.88
2022-09-15T00:33:58.780Z,98199.19
2022-09-15T00:36:26.989Z,98229.47
2022-09-15T00:38:54.196Z,98235.19
2022-09-15T00:41:23.521Z,98214.00
2022-09-15T00:44:26.082Z,98220.84
2022-09-15T00:47:17.722Z,98197.22
2022-09-15T00:49:45.405Z,98258.28
2022-09-15T00:52:36.195Z,98247.69
2022-09-15T00:55:19.420Z,98251.00
2022-09-15T00:57:55.908Z,98268.16
2022-09-15T01:00:27.577Z,98220.63
2022-09-15T01:02:57.166Z,98232.72
2022-09-15T01:05:30.817Z,98230.25
2022-09-15T01:08:10.052Z,98209.38
2022-09-15T01:10:40.742Z,98224.63
2022-09-15T01:13:12.103Z,98277.56
2022-09-15T01:16:10.040Z,98187.13
2022-09-15T01:19:17.766Z,98193.47
2022-09-15T01:22:35.846Z,98192.41
2022-09-15T01:25:35.299Z,98227.88
2022-09-15T01:28:48.468Z,98223.53
2022-09-15T01:32:07.503Z,98184.69
2022-09-15T01:34:44.966Z,98271.50
2022-09-15T01:37:17.936Z,98243.50
2022-09-15T01:39:50.309Z,98254.09
2022-09-15T01:42:20.172Z,98207.28
2022-09-15T01:44:59.497Z,98198.38
2022-09-15T01:47:29.869Z,98215.28
2022-09-15T01:50:11.765Z,98219.47
2022-09-15T01:52:43.588Z,98211.13
2022-09-15T01:55:25.440Z,98239.78
2022-09-15T01:57:52.647Z,98220.19
2022-09-15T02:00:19.722Z,98230.56
2022-09-15T02:02:59.437Z,98232.91
2022-09-15T02:05:54.423Z,98274.91
2022-09-15T02:08:38.331Z,98214.91
2022-09-15T02:11:28.015Z,98126.25
2022-09-15T02:14:11.661Z,98130.69
2022-09-15T02:16:43.673Z,98158.47
2022-09-15T02:19:41.510Z,98144.03
2022-09-15T02:22:23.537Z,98083.72
2022-09-15T02:25:03.401Z,98132.47
2022-09-15T02:27:40.967Z,98145.53
2022-09-15T02:30:15.274Z,98188.81
2022-09-15T02:32:51.473Z,98150.50
2022-09-15T02:35:18.587Z,98188.75
2022-09-15T02:37:46.710Z,98096.53
2022-09-15T02:40:14.004Z,98151.50
2022-09-15T02:42:42.703Z,98126.63
2022-09-15T02:45:10.139Z,98188.13
2022-09-15T02:47:37.661Z,98232.97
2022-09-15T02:50:05.823Z,98221.47
2022-09-15T02:52:32.973Z,98176.44
2022-09-15T02:55:01.027Z,98143.75
2022-09-15T02:57:27.976Z,98199.03
2022-09-15T03:00:13.572Z,98160.22
2022-09-15T03:02:54.468Z,98096.16
2022-09-15T03:05:30.601Z,98203.84
2022-09-15T03:07:57.808Z,98149.97
2022-09-15T03:10:26.010Z,98183.22
2022-09-15T03:12:54.781Z,98208.09
2022-09-15T03:15:25.639Z,98189.91
2022-09-15T03:17:53.575Z,98178.50
2022-09-15T03:20:24.697Z,98225.78
2022-09-15T03:22:51.841Z,98184.09
2022-09-15T03:25:19.829Z,98203.72
2022-09-15T03:27:47.480Z,98170.00
2022-09-15T03:30:15.527Z,98231.63
2022-09-15T03:32:42.759Z,98263.19
2022-09-15T03:35:09.979Z,98245.03
2022-09-15T03:37:37.216Z,98175.81
2022-09-15T03:40:05.306Z,98183.09
2022-09-15T03:42:32.529Z,98235.91
2022-09-15T03:44:59.423Z,98217.13
2022-09-15T03:47:26.484Z,98202.69
2022-09-15T03:49:53.381Z,98201.09
2022-09-15T03:52:20.606Z,98209.78
2022-09-15T03:54:49.172Z,98204.78
2022-09-15T03:57:16.129Z,98233.13
2022-09-15T03:59:43.166Z,98177.19
2022-09-15T04:02:10.156Z,98230.47
2022-09-15T04:04:37.140Z,98230.59
2022-09-15T04:07:04.067Z,98218.84
2022-09-15T04:09:31.533Z,98219.75
2022-09-15T04:11:58.479Z,98218.13
2022-09-15T04:14:25.507Z,98201.41
2022-09-15T04:16:52.537Z,98243.28
2022-09-15T04:19:19.743Z,98150.75
2022-09-15T04:21:47.507Z,98159.34
2022-09-15T04:24:14.589Z,98204.50
2022-09-15T04:26:41.490Z,98173.63
2022-09-15T04:29:15.542Z,98114.31
2022-09-15T04:31:42.895Z,98157.28
2022-09-15T04:34:10.429Z,98162.34
2022-09-15T04:36:37.765Z,98230.19
2022-09-15T04:39:06.727Z,98207.09
2022-09-15T04:41:33.869Z,98233.38
2022-09-15T04:44:01.224Z,98222.78
2022-09-15T04:46:28.420Z,98199.56
2022-09-15T04:48:56.508Z,98245.09
2022-09-15T04:51:24.221Z,98196.72
2022-09-15T04:53:51.983Z,98208.41
2022-09-15T04:56:24.582Z,98228.97
2022-09-15T04:59:03.429Z,98227.97
2022-09-15T05:01:34.305Z,98172.59
2022-09-15T05:04:06.054Z,98173.16
2022-09-15T05:06:35.178Z,98244.63
2022-09-15T05:09:09.026Z,98279.06
2022-09-15T05:11:37.809Z,98182.88
2022-09-15T05:14:04.886Z,98230.56
2022-09-15T05:16:32.143Z,98201.56
2022-09-15T05:19:01.439Z,98263.00
2022-09-15T05:21:29.661Z,98272.75
2022-09-15T05:23:57.146Z,98230.75
2022-09-15T05:26:28.199Z,98264.47
2022-09-15T05:28:57.064Z,98279.97
2022-09-15T05:31:33.981Z,98268.38
2022-09-15T05:34:04.542Z,98275.41
2022-09-15T05:36:32.328Z,98227.72
2022-09-15T05:39:00.233Z,98295.81
2022-09-15T05:41:28.587Z,98294.16
2022-09-15T05:43:58.076Z,98306.94
2022-09-15T05:46:26.827Z,98214.66
2022-09-15T05:48:58.263Z,98216.94
2022-09-15T05:51:25.793Z,98271.53
2022-09-15T05:53:52.823Z,98274.41
2022-09-15T05:56:20.527Z,98219.63
2022-09-15T05:58:48.959Z,98241.88
2022-09-15T06:01:24.751Z,98261.59
2022-09-15T06:03:53.105Z,98257.25
2022-09-15T06:06:22.340Z,98205.25
2022-09-15T06:08:58.010Z,98272.84
2022-09-15T06:11:33.670Z,98297.59
2022-09-15T06:14:03.283Z,98225.25
2022-09-15T06:16:33.892Z,98192.84
2022-09-15T06:19:01.455Z,98200.78
2022-09-15T06:21:30.765Z,98251.13
2022-09-15T06:24:00.753Z,98247.09
2022-09-15T06:26:28.810Z,98283.34
2022-09-15T06:28:58.890Z,98213.66
2022-09-15T06:31:28.203Z,98241.53
2022-09-15T06:33:57.667Z,98282.56
2022-09-15T06:36:30.584Z,98235.06
2022-09-15T06:38:58.736Z,98292.69
2022-09-15T06:41:38.208Z,98284.88
2022-09-15T06:44:21.510Z,98318.09
2022-09-15T06:46:49.262Z,98321.66
2022-09-15T06:49:17.125Z,98295.91
2022-09-15T06:51:44.085Z,98287.78
2022-09-15T06:54:11.932Z,98252.00
2022-09-15T06:56:39.151Z,98333.25
2022-09-15T06:59:06.685Z,98291.09
2022-09-15T07:01:34.201Z,98305.16
2022-09-15T07:04:04.461Z,98288.09
2022-09-15T07:06:33.112Z,98218.69
2022-09-15T07:09:02.570Z,98349.81
2022-09-15T07:11:31.784Z,98245.53
2022-09-15T07:13:59.158Z,98221.22
2022-09-15T07:16:26.552Z,98279.06
2022-09-15T07:18:57.636Z,98203.88
2022-09-15T07:21:24.715Z,98278.66
2022-09-15T07:23:52.062Z,98318.56
2022-09-15T07:26:28.345Z,98311.63
2022-09-15T07:29:00.455Z,98287.22
2022-09-15T07:31:31.312Z,98293.16
2022-09-15T07:34:03.327Z,98250.41
2022-09-15T07:36:31.324Z,98235.59
2022-09-15T07:38:58.603Z,98266.16
2022-09-15T07:41:29.219Z,98275.56
2022-09-15T07:43:59.764Z,98317.44
2022-09-15T07:46:31.605Z,98341.00
2022-09-15T07:48:59.075Z,98299.25
2022-09-15T07:51:26.555Z,98291.19
2022-09-15T07:53:53.979Z,98286.78
2022-09-15T07:56:23.416Z,98299.50
2022-09-15T07:58:51.032Z,98325.47
2022-09-15T08:01:19.572Z,98262.25
2022-09-15T08:03:50.036Z,98336.00
2022-09-15T08:06:22.009Z,98317.59
2022-09-15T08:08:53.962Z,98253.03
2022-09-15T08:11:23.516Z,98266.00
2022-09-15T08:13:52.479Z,98299.13
2022-09-15T08:16:25.179Z,98241.34
2022-09-15T08:18:54.221Z,98284.16
2022-09-15T08:21:22.527Z,98271.78
2022-09-15T08:23:57.980Z,98335.03
2022-09-15T08:26:27.411Z,98301.06
2022-09-15T08:28:54.889Z,98346.84
2022-09-15T08:31:24.164Z,98318.19
2022-09-15T08:33:54.699Z,98291.38
2022-09-15T08:36:22.999Z,98291.44
2022-09-15T08:38:50.681Z,98333.25
2022-09-15T08:41:45.372Z,98374.34
2022-09-15T08:44:39.939Z,98296.78
2022-09-15T08:47:26.338Z,98326.09
2022-09-15T08:50:31.183Z,98328.88
2022-09-15T08:53:25.458Z,98308.88
2022-09-15T08:56:05.430Z,98294.34
2022-09-15T08:58:37.836Z,98339.59
2022-09-15T09:01:10.713Z,98365.56
2022-09-15T09:04:13.724Z,98339.84
2022-09-15T09:07:23.506Z,98360.03
2022-09-15T09:10:31.702Z,98390.28
2022-09-15T09:13:35.235Z,98350.13
2022-09-15T09:16:33.183Z,98368.97
2022-09-15T09:19:56.340Z,98347.91
2022-09-15T09:22:38.534Z,98371.34
2022-09-15T09:25:26.089Z,98319.34
2022-09-15T09:27:56.377Z,98352.16
2022-09-15T09:30:25.668Z,98360.88
2022-09-15T09:33:29.533Z,98314.78
2022-09-15T09:36:01.287Z,98358.13
2022-09-15T09:38:37.857Z,98324.47
2022-09-15T09:41:25.322Z,98336.84
2022-09-15T09:43:56.071Z,98365.75
2022-09-15T09:46:23.086Z,98330.47
2022-09-15T09:49:01.579Z,98368.50
2022-09-15T09:51:40.195Z,98392.84
2022-09-15T09:54:16.402Z,98359.25
2022-09-15T09:56:46.531Z,98366.72
2022-09-15T09:59:39.216Z,98377.81
2022-09-15T10:02:06.169Z,98344.84
2022-09-15T10:04:33.484Z,98325.88
2022-09-15T10:07:00.835Z,98328.72
2022-09-15T10:09:33.162Z,98334.78
2022-09-15T10:12:04.253Z,98344.25
2022-09-15T10:14:40.315Z,98353.44
2022-09-15T10:17:20.970Z,98372.00
2022-09-15T10:19:58.979Z,98341.34
2022-09-15T10:22:25.930Z,98307.91
2022-09-15T10:24:53.563Z,98382.78
2022-09-15T10:27:34.207Z,98306.56
2022-09-15T10:30:18.012Z,98317.97
2022-09-15T10:32:45.472Z,98314.13
2022-09-15T10:35:20.620Z,98348.94
2022-09-15T10:38:16.853Z,98325.19
2022-09-15T10:41:29.844Z,98326.09
2022-09-15T10:44:52.609Z,98364.81
2022-09-15T10:48:10.083Z,98316.00
2022-09-15T10:51:09.730Z,98339.47
2022-09-15T10:54:18.015Z,98328.44
2022-09-15T10:56:55.261Z,98331.22
2022-09-15T10:59:27.958Z,98304.31
2022-09-15T11:02:59.765Z,98297.03
2022-09-15T11:05:34.344Z,98309.44
2022-09-15T11:08:22.936Z,98292.66
2022-09-15T11:11:33.357Z,98311.31
2022-09-15T11:14:33.749Z,98331.19
2022-09-15T11:17:25.383Z,98338.66
2022-09-15T11:20:26.717Z,98325.44
2022-09-15T11:23:09.440Z,98310.34
2022-09-15T11:25:46.696Z,98301.34
2022-09-15T11:28:39.739Z,98301.09
2022-09-15T11:31:30.180Z,98308.84
2022-09-15T11:34:02.315Z,98285.53
2022-09-15T11:36:44.792Z,98317.25
2022-09-15T11:39:29.249Z,98350.19
2022-09-15T11:42:25.973Z,98328.72
2022-09-15T11:44:55.192Z,98313.00
2022-09-15T11:47:32.248Z,98349.88
2022-09-15T11:50:11.343Z,98300.75
2022-09-15T11:53:19.167Z,98283.78
2022-09-15T11:56:32.113Z,98339.63
2022-09-15T11:59:44.517Z,98317.53
2022-09-15T12:03:02.116Z,98349.31
2022-09-15T12:05:41.820Z,98337.16
2022-09-15T12:08:24.660Z,98391.59
2022-09-15T12:10:56.644Z,98374.94
2022-09-15T12:13:26.360Z,98382.13
2022-09-15T12:15:55.053Z,98347.38
2022-09-15T12:18:48.458Z,98366.34
2022-09-15T12:21:36.786Z,98380.00
2022-09-15T12:24:14.995Z,98388.09
2022-09-15T12:26:43.405Z,98342.97
2022-09-15T12:29:42.134Z,98339.56
2022-09-15T12:32:30.867Z,98350.59
2022-09-15T12:35:17.399Z,98390.84
2022-09-15T12:37:59.203Z,98373.78
2022-09-15T12:40:37.564Z,98397.59
2022-09-15T12:43:23.067Z,98386.69
2022-09-15T12:46:00.560Z,98394.75
2022-09-15T12:48:29.298Z,98385.25
2022-09-15T12:51:10.487Z,98380.06
2022-09-15T12:54:04.792Z,98403.63
2022-09-15T12:56:33.916Z,98377.56
2022-09-15T12:59:08.075Z,98353.28
2022-09-15T13:01:48.767Z,98344.53
2022-09-15T13:04:52.857Z,98363.75
2022-09-15T13:07:19.762Z,98373.75
2022-09-15T13:10:10.914Z,98352.16
2022-09-15T13:12:48.331Z,98393.06
2022-09-15T13:15:17.601Z,98395.28
2022-09-15T13:17:47.122Z,98325.63
2022-09-15T13:20:26.131Z,98414.03
2022-09-15T13:22:56.496Z,98360.81
2022-09-15T13:25:29.104Z,98321.88
2022-09-15T13:28:00.923Z,98389.00
2022-09-15T13:30:48.138Z,98379.53
2022-09-15T13:35:00.296Z,98399.66
2022-09-15T13:40:19.430Z,98298.91
2022-09-15T13:42:55.248Z,98350.50
2022-09-15T13:45:53.382Z,98339.63
2022-09-15T13:48:47.429Z,98362.88
2022-09-15T13:51:27.625Z,98359.81
2022-09-15T13:54:05.194Z,98363.38
2022-09-15T13:56:39.149Z,98316.66
2022-09-15T13:59:16.916Z,98310.97
2022-09-15T14:01:45.273Z,98360.00
2022-09-15T14:04:20.191Z,98387.91
2022-09-15T14:07:00.069Z,98330.16
2022-09-15T14:09:38.497Z,98330.72
2022-09-15T14:12:12.243Z,98352.22
2022-09-15T14:14:58.135Z,98380.84
2022-09-15T14:17:28.801Z,98325.91
2022-09-15T14:20:01.240Z,98291.59
2022-09-15T14:22:31.045Z,98347.09
2022-09-15T14:25:07.583Z,98339.53
2022-09-15T14:27:36.773Z,98421.34
2022-09-15T14:30:12.247Z,98407.63
2022-09-15T14:32:45.735Z,98406.25
2022-09-15T14:35:19.782Z,98280.88
2022-09-15T14:37:56.645Z,98298.81
2022-09-15T14:40:29.948Z,98321.22
2022-09-15T14:42:58.227Z,98351.66
2022-09-15T14:46:02.236Z,98297.16
2022-09-15T14:48:28.307Z,98389.41
2022-09-15T14:51:08.619Z,98339.44
2022-09-15T14:53:40.393Z,98424.06
2022-09-15T14:56:17.585Z,98307.97
2022-09-15T14:58:56.092Z,98381.75
2022-09-15T15:01:23.759Z,98407.63
2022-09-15T15:04:10.231Z,98325.16
2022-09-15T15:06:42.318Z,98342.72
2022-09-15T15:09:44.014Z,98316.13
2022-09-15T15:12:43.783Z,98426.69
2022-09-15T15:15:16.322Z,98339.34
2022-09-15T15:17:54.499Z,98418.22
2022-09-15T15:20:25.373Z,98407.84
2022-09-15T15:23:13.731Z,98351.44
2022-09-15T15:25:42.072Z,98378.41
2022-09-15T15:28:34.843Z,98438.75
2022-09-15T15:31:22.059Z,98403.25
2022-09-15T15:34:07.301Z,98371.53
2022-09-15T15:36:36.031Z,98367.69
2022-09-15T15:39:07.589Z,98391.00
2022-09-15T15:41:41.761Z,98373.16
2022-09-15T15:44:34.988Z,98403.94
2022-09-15T15:47:13.648Z,98411.03
2022-09-15T15:50:02.359Z,98410.38
2022-09-15T15:52:27.854Z,98386.47
2022-09-15T15:54:54.739Z,98392.53
2022-09-15T15:57:25.883Z,98391.16
2022-09-15T15:59:57.675Z,98438.72
2022-09-15T16:02:26.913Z,98415.44
2022-09-15T16:04:54.878Z,98358.22
2022-09-15T16:07:24.125Z,98354.69
2022-09-15T16:09:51.490Z,98381.09
2022-09-15T16:12:18.396Z,98387.34
2022-09-15T16:14:45.387Z,98433.03
2022-09-15T16:17:12.630Z,98410.59
2022-09-15T16:19:39.572Z,98428.34
2022-09-15T16:22:06.608Z,98477.84
2022-09-15T16:24:33.696Z,98397.63
2022-09-15T16:27:00.830Z,98422.78
2022-09-15T16:29:36.009Z,98375.31
2022-09-15T16:32:05.280Z,98458.50
2022-09-15T16:34:32.350Z,98382.84
2022-09-15T16:36:59.305Z,98449.69
2022-09-15T16:39:26.231Z,98489.06
2022-09-15T16:41:53.149Z,98413.56
2022-09-15T16:44:20.342Z,98392.94
2022-09-15T16:46:48.289Z,98418.75
2022-09-15T16:49:15.262Z,98432.91
2022-09-15T16:51:42.582Z,98430.34
2022-09-15T16:54:18.810Z,98369.41
2022-09-15T16:56:46.241Z,98428.69
2022-09-15T16:59:13.260Z,98441.75
2022-09-15T17:01:41.503Z,98460.13
2022-09-15T17:04:19.161Z,98381.31
2022-09-15T17:06:46.388Z,98446.03
2022-09-15T17:09:13.336Z,98390.69
2022-09-15T17:11:40.454Z,98437.47
2022-09-15T17:14:14.124Z,98453.97
2022-09-15T17:16:41.085Z,98415.75
2022-09-15T17:19:08.015Z,98412.56
2022-09-15T17:21:35.265Z,98428.59
2022-09-15T17:24:02.403Z,98443.56
2022-09-15T17:26:31.599Z,98407.06
2022-09-15T17:28:59.087Z,98419.34
2022-09-15T17:31:28.058Z,98435.88
2022-09-15T17:33:55.130Z,98468.78
2022-09-15T17:36:22.150Z,98447.72
2022-09-15T17:38:49.278Z,98413.50
2022-09-15T17:41:22.388Z,98479.06
2022-09-15T17:43:50.152Z,98396.78
2022-09-15T17:46:17.444Z,98385.06
2022-09-15T17:48:44.498Z,98354.16
2022-09-15T17:51:17.687Z,98433.94
2022-09-15T17:53:46.767Z,98428.03
2022-09-15T17:56:13.765Z,98423.81
2022-09-15T17:58:41.434Z,98422.59
2022-09-15T18:01:12.285Z,98428.50
2022-09-15T18:03:39.323Z,98353.53
2022-09-15T18:06:08.682Z,98410.19
2022-09-15T18:08:36.477Z,98421.56
2022-09-15T18:11:05.600Z,98353.13
2022-09-15T18:13:33.667Z,98396.13
2022-09-15T18:16:12.287Z,98408.66
2022-09-15T18:18:40.567Z,98387.91
2022-09-15T18:21:13.189Z,98404.94
2022-09-15T18:23:42.430Z,98443.63
2022-09-15T18:26:09.382Z,98440.66
2022-09-15T18:28:36.449Z,98497.69
2022-09-15T18:31:03.717Z,98437.97
2022-09-15T18:33:30.872Z,98486.94
2022-09-15T18:36:01.382Z,98454.94
2022-09-15T18:38:29.411Z,98475.22
2022-09-15T18:40:57.214Z,98445.78
2022-09-15T18:43:27.538Z,98444.22
2022-09-15T18:46:01.721Z,98441.44
2022-09-15T18:48:29.293Z,98460.19
2022-09-15T18:50:56.449Z,98497.00
2022-09-15T18:53:23.994Z,98553.78
2022-09-15T18:55:50.988Z,98501.31
2022-09-15T18:58:19.274Z,98493.97
2022-09-15T19:00:46.601Z,98510.03
2022-09-15T19:03:14.510Z,98436.88
2022-09-15T19:05:42.490Z,98459.16
2022-09-15T19:08:10.954Z,98495.31
2022-09-15T19:10:40.707Z,98453.16
2022-09-15T19:13:07.688Z,98404.00
2022-09-15T19:15:35.212Z,98516.75
2022-09-15T19:18:02.244Z,98530.38
2022-09-15T19:20:29.377Z,98433.03
2022-09-15T19:22:58.025Z,98458.75
2022-09-15T19:25:25.148Z,98478.94
2022-09-15T19:27:52.080Z,98493.53
2022-09-15T19:30:19.672Z,98464.00
2022-09-15T19:32:46.682Z,98494.59
2022-09-15T19:35:13.933Z,98506.59
2022-09-15T19:37:42.742Z,98546.47
2022-09-15T19:40:13.884Z,98491.75
2022-09-15T19:42:43.488Z,98468.38
2022-09-15T19:45:12.192Z,98495.41
2022-09-15T19:47:40.362Z,98529.69
2022-09-15T19:50:09.197Z,98445.97
2022-09-15T19:52:36.442Z,98482.16
2022-09-15T19:55:06.723Z,98527.53
2022-09-15T19:57:33.637Z,98538.09
2022-09-15T20:00:00.624Z,98531.00
2022-09-15T20:02:27.991Z,98568.84
2022-09-15T20:04:55.047Z,98514.50
2022-09-15T20:07:21.933Z,98500.94
2022-09-15T20:09:49.192Z,98568.72
2022-09-15T20:12:16.179Z,98562.69
2022-09-15T20:14:43.189Z,98518.41
2022-09-15T20:17:10.355Z,98574.94
2022-09-15T20:19:37.663Z,98601.75
2022-09-15T20:22:04.878Z,98581.31
2022-09-15T20:24:31.845Z,98477.66
2022-09-15T20:26:59.254Z,98599.22
2022-09-15T20:29:26.274Z,98524.94
2022-09-15T20:31:53.832Z,98453.41
2022-09-15T20:34:20.930Z,98570.69
2022-09-15T20:36:48.154Z,98542.50
2022-09-15T20:39:18.724Z,98585.72
2022-09-15T20:41:45.780Z,98633.06
2022-09-15T20:44:13.128Z,98481.28
2022-09-15T20:46:40.557Z,98510.41
2022-09-15T20:49:07.921Z,98609.66
2022-09-15T20:51:35.391Z,98612.28
2022-09-15T20:54:06.429Z,98585.91
2022-09-15T20:56:35.311Z,98513.28
2022-09-15T20:59:04.325Z,98613.31
2022-09-15T21:01:37.867Z,98504.25
2022-09-15T21:04:08.333Z,98524.22
2022-09-15T21:06:36.597Z,98524.56
2022-09-15T21:09:05.159Z,98636.03
2022-09-15T21:11:33.618Z,98526.16
2022-09-15T21:14:01.787Z,98553.13
2022-09-15T21:19:18.370Z,98495.81
2022-09-15T21:21:45.769Z,98573.03
2022-09-15T21:24:12.892Z,98545.63
2022-09-15T21:27:00.678Z,98500.09
2022-09-15T21:29:28.501Z,98598.09
2022-09-15T21:31:56.047Z,98560.84
2022-09-15T21:34:23.908Z,98539.19
2022-09-15T21:36:51.890Z,98606.88
2022-09-15T21:39:18.815Z,98668.81
2022-09-15T21:41:45.797Z,98600.19
2022-09-15T21:44:12.822Z,98635.16
2022-09-15T21:46:39.865Z,98668.41
2022-09-15T21:49:07.701Z,98608.38
2022-09-15T21:51:34.600Z,98596.19
2022-09-15T21:54:01.691Z,98590.56
2022-09-15T21:56:30.074Z,98594.94
2022-09-15T21:58:57.726Z,98619.50
2022-09-15T22:01:28.110Z,98593.41
2022-09-15T22:04:01.483Z,98588.81
2022-09-15T22:06:40.591Z,98596.63
2022-09-15T22:09:14.674Z,98564.47
2022-09-15T22:11:42.790Z,98564.47
2022-09-15T22:14:10.391Z,98603.88
2022-09-15T22:16:40.751Z,98508.25
2022-09-15T22:19:11.043Z,98611.00
2022-09-15T22:21:41.490Z,98633.59
2022-09-15T22:24:12.156Z,98637.22
2022-09-15T22:26:40.360Z,98567.78
2022-09-15T22:29:07.406Z,98577.06
2022-09-15T22:31:35.210Z,98597.16
2022-09-15T22:34:02.590Z,98558.31
2022-09-15T22:36:30.807Z,98618.75
2022-09-15T22:39:05.993Z,98634.47
2022-09-15T22:41:37.742Z,98618.53
2022-09-15T22:44:17.754Z,98624.00
2022-09-15T22:46:45.093Z,98610.63
2022-09-15T22:49:11.997Z,98624.00
2022-09-15T22:51:39.067Z,98578.59
2022-09-15T22:54:06.095Z,98613.75
2022-09-15T22:56:33.529Z,98589.38
2022-09-15T22:59:00.768Z,98606.25
2022-09-15T23:01:30.628Z,98594.69
2022-09-15T23:04:01.216Z,98585.41
2022-09-15T23:06:31.617Z,98591.66
2022-09-15T23:09:05.314Z,98609.06
2022-09-15T23:11:33.415Z,98561.19
2022-09-15T23:14:01.105Z,98591.47
2022-09-15T23:16:28.577Z,98548.84
2022-09-15T23:18:55.770Z,98563.13
2022-09-15T23:21:23.059Z,98576.69
2022-09-15T23:23:53.311Z,98595.44
2022-09-15T23:26:22.768Z,98556.84
2022-09-15T23:28:50.646Z,98556.16
2022-09-15T23:31:19.822Z,98551.66
2022-09-15T23:33:47.594Z,98573.22
2022-09-15T23:36:19.638Z,98573.75
2022-09-15T23:38:47.903Z,98586.94
2022-09-15T23:41:16.162Z,98579.81
2022-09-15T23:43:43.465Z,98504.41
2022-09-15T23:46:10.924Z,98501.09
2022-09-15T23:48:38.426Z,98498.84
2022-09-15T23:51:05.946Z,98582.50
2022-09-15T23:53:33.773Z,98571.25
2022-09-15T23:56:00.990Z,98542.66
2022-09-15T23:58:28.101Z,98547.34
